Terminal Aerodrome Forecast
Issued by NWS

Home | Current Version | Previous Version | Graphics & Text | Print | Product List | Glossary On
Versions: 1 2 3 4 5 6 7 8 9 10 11 12 13 14 15
000
FTUS43 KICT 060528
TAFHUT
TAF
KHUT 060528Z 0606/0706 35006KT P6SM SCT120
     FM060700 35016G24KT P6SM SCT120
     FM061400 34006KT P6SM SCT250
     FM070200 VRB03KT P6SM BKN100=

USA.gov is the U.S. government's official web portal to all federal, state and local government web resources and services.